• Join FlightAware (Why Join?)
  • Login
  • US Flag 
11:07PM EST


 

Airport Tracker/Info


-or-


 

Live Flight TrackerFlight Track Log ✈ VNR187 ✈ 13-May-2013 ✈ KVRB - KHPN

Flight Track Log - Related Links

Times and Time Zones

All times are in EDT time to prevent confusion due to time zone crossing. See the VNR187 flight status page for this flight to view local times or setup timezone preferences in your user account.

Time Position Orientation Groundspeed Altitude Reporting Facility
EDT Latitude Longitude Course Direction KTS MPH feet Rate Location/Type
01:05PM 27.6814 -80.4681 306° West 280 322 1,600  Level Miami Center
01:06PM 27.7094 -80.5111 306° West 229 264 3,600 1,800 Climbing Miami Center
01:07PM 27.7400 -80.5450 316° Northwest 180 207 5,300 1,980 Climbing Miami Center
01:08PM 27.7783 -80.5886 315° West 175 201 7,600 2,160 Climbing Miami Center
01:09PM 27.8128 -80.6294 314° West 175 201 9,700 1,800 Climbing Miami Center
01:10PM 27.8303 -80.6817 291° West 170 196 11,300 1,680 Climbing Miami Center
01:11PM 27.8456 -80.7317 289° West 177 204 13,100 1,740 Climbing Miami Center
01:12PM 27.8608 -80.7883 287° West 187 215 14,800 1,740 Climbing Miami Center
01:13PM 27.8781 -80.8453 289° West 187 215 16,600 1,680 Climbing Miami Center
01:14PM 27.8950 -80.9072 287° West 187 215 18,200 1,560 Climbing Miami Center
01:15PM 27.9314 -80.9553 311° West 187 215 19,800 1,440 Climbing Miami Center
01:16PM 27.9867 -80.9881 332° Northwest 194 223 21,200 1,200 Climbing Miami Center
01:17PM 28.0461 -81.0253 331° Northwest 221 254 22,200 1,080 Climbing Miami Center
01:18PM 28.1097 -81.0631 332° Northwest 239 275 23,400 1,320 Climbing Miami Center
01:19PM 28.1733 -81.1031 331° Northwest 254 292 24,900 1,260 Climbing Miami Center
01:20PM 28.2347 -81.1431 330° Northwest 264 304 26,000 900 Climbing Miami Center
01:21PM 28.3000 -81.1856 330° Northwest 264 304 26,800 840 Climbing Miami Center
01:22PM 28.3617 -81.2233 332° Northwest 264 304 27,700 900 Climbing Miami Center
01:23PM 28.4292 -81.2614 334° Northwest 264 304 28,600 960 Climbing Miami Center
01:24PM 28.4928 -81.3017 331° Northwest 264 304 29,700 900 Climbing Miami Center
01:25PM 28.5625 -81.3353 337° Northwest 264 304 30,500 600 Climbing Miami Center
01:26PM 28.6478 -81.3481 353° North 269 310 31,000 300 Climbing Miami Center
01:27PM 28.6833 -81.3519 355° North 271 312 31,000  Level Jacksonville Center
01:28PM 28.7711 -81.3600 355° North 299 344 31,000  Level Jacksonville Center
01:29PM 28.8631 -81.3681 356° North 314 361 31,000  Level Jacksonville Center
01:30PM 28.9569 -81.3761 356° North 326 375 31,000  Level Jacksonville Center
01:31PM 29.0511 -81.3867 354° North 331 381 31,000  Level Jacksonville Center
01:32PM 29.1450 -81.3947 356° North 331 381 31,000  Level Jacksonville Center
01:33PM 29.2369 -81.4028 356° North 331 381 31,000  Level Jacksonville Center
01:34PM 29.3311 -81.4158 353° North 331 381 31,000  Level Jacksonville Center
01:35PM 29.4250 -81.4239 356° North 331 381 31,000  Level Jacksonville Center
01:36PM 29.5211 -81.4319 356° North 331 381 31,000  Level Jacksonville Center
01:37PM 29.6153 -81.4400 356° North 331 381 31,000  Level Jacksonville Center
01:38PM 29.7114 -81.4506 355° North 336 387 31,000  Level Jacksonville Center
01:39PM 29.8056 -81.4589 356° North 336 387 31,000  Level Jacksonville Center
01:40PM 29.9017 -81.4669 356° North 336 387 31,000  Level Jacksonville Center
01:41PM 29.9956 -81.4775 354° North 336 387 31,000  Level Jacksonville Center
01:42PM 30.0917 -81.4833 357° North 336 387 31,000  Level Jacksonville Center
01:43PM 30.1878 -81.4939 355° North 336 387 31,000  Level Jacksonville Center
01:44PM 30.2819 -81.5022 356° North 336 387 31,000  Level Jacksonville Center
01:45PM 30.3822 -81.5056 358° North 347 399 31,000  Level Jacksonville Center
01:46PM 30.4967 -81.4847 North 365 420 31,000  Level Jacksonville Center
01:47PM 30.6008 -81.4661 North 372 428 31,000  Level Jacksonville Center
01:48PM 30.7050 -81.4478 North 372 428 31,000  Level Jacksonville Center
01:49PM 30.8094 -81.4317 North 372 428 31,000  Level Jacksonville Center
01:50PM 30.9136 -81.4131 North 372 428 31,000  Level Jacksonville Center
01:51PM 31.0156 -81.3969 North 367 422 31,000  Level Jacksonville Center
01:52PM 31.1178 -81.3808 North 372 428 31,000  Level Jacksonville Center
01:53PM 31.2178 -81.3622 North 364 419 31,000  Level Jacksonville Center
01:54PM 31.3178 -81.3436 North 362 417 31,000  Level Jacksonville Center
01:55PM 31.4197 -81.3247 North 362 417 31,000  Level Jacksonville Center
01:56PM 31.5197 -81.3061 North 367 422 31,000  Level Jacksonville Center
01:57PM 31.6108 -81.2433 30° Northeast 391 450 31,000  Level Jacksonville Center
01:58PM 31.7139 -81.1489 38° Northeast 430 495 31,000  Level Jacksonville Center
01:59PM 31.8108 -81.0614 37° Northeast 441 507 31,000  Level Jacksonville Center
02:00PM 31.9078 -80.9714 38° Northeast 436 502 31,000  Level Jacksonville Center
02:01PM 31.9983 -80.8864 39° Northeast 436 502 31,000  Level Jacksonville Center
02:02PM 32.0847 -80.8083 37° Northeast 430 495 31,000  Level Jacksonville Center
02:03PM 32.1772 -80.7203 39° Northeast 430 495 31,000  Level Jacksonville Center
02:04PM 32.2694 -80.6322 39° Northeast 425 489 31,000  Level Jacksonville Center
02:05PM 32.3619 -80.5461 38° Northeast 425 489 31,000  Level Jacksonville Center
02:06PM 32.4542 -80.4578 39° Northeast 420 483 31,000  Level Jacksonville Center
02:07PM 32.5444 -80.3714 39° Northeast 420 483 31,000  Level Jacksonville Center
02:08PM 32.6406 -80.2825 38° Northeast 420 483 31,000  Level Jacksonville Center
02:09PM 32.7306 -80.1933 40° Northeast 420 483 31,000  Level Jacksonville Center
02:10PM 32.8369 -80.0939 38° Northeast 420 483 31,000  Level Jacksonville Center
02:11PM 32.9308 -80.0019 39° Northeast 425 489 31,000  Level Jacksonville Center
02:12PM 33.0247 -79.9097 39° Northeast 425 489 31,000  Level Jacksonville Center
02:13PM 33.1167 -79.8222 39° Northeast 425 489 31,000  Level Jacksonville Center
02:14PM 33.2103 -79.7297 40° Northeast 425 489 31,000  Level Jacksonville Center
02:15PM 33.3019 -79.6419 39° Northeast 431 496 31,000  Level Jacksonville Center
02:16PM 33.3956 -79.5514 39° Northeast 431 496 31,000  Level Jacksonville Center
02:17PM 33.4872 -79.4608 39° Northeast 431 496 31,000  Level Jacksonville Center
02:18PM 33.5786 -79.3725 39° Northeast 431 496 31,000  Level Jacksonville Center
02:19PM 33.6719 -79.2789 40° Northeast 426 490 31,000  Level Jacksonville Center
02:20PM 33.7592 -79.1956 38° Northeast 421 484 31,000  Level Jacksonville Center
02:22PM 33.9458 -79.0086 40° Northeast 414 476 31,000  Level Washington Center
02:23PM 34.0381 -78.9197 39° Northeast 419 482 31,000  Level Washington Center
02:24PM 34.1303 -78.8283 39° Northeast 419 482 31,000  Level Washington Center
02:25PM 34.2244 -78.7364 39° Northeast 424 488 31,000  Level Washington Center
02:26PM 34.3164 -78.6469 39° Northeast 424 488 31,000  Level Washington Center
02:27PM 34.4064 -78.5522 41° Northeast 424 488 31,000  Level Washington Center
02:28PM 34.5006 -78.4597 39° Northeast 424 488 31,000  Level Washington Center
02:29PM 34.5903 -78.3644 41° Northeast 429 494 31,000  Level Washington Center
02:30PM 34.6864 -78.2694 39° Northeast 429 494 31,000  Level Washington Center
02:31PM 34.7803 -78.1739 40° Northeast 435 501 31,000  Level Washington Center
02:32PM 34.8786 -78.0681 41° Northeast 435 501 31,000  Level Washington Center
02:33PM 34.9703 -77.9719 41° Northeast 435 501 31,000  Level Washington Center
02:34PM 35.0617 -77.8783 40° Northeast 435 501 31,000  Level Washington Center
02:35PM 35.1511 -77.7817 41° Northeast 432 497 31,000  Level Washington Center
02:36PM 35.2489 -77.6828 40° Northeast 437 503 31,000  Level Washington Center
02:37PM 35.3425 -77.5858 40° Northeast 437 503 31,000  Level Washington Center
02:38PM 35.4314 -77.5064 36° Northeast 437 503 31,000  Level Washington Center
02:39PM 35.5308 -77.4194 35° Northeast 437 503 31,000  Level Washington Center
02:40PM 35.6281 -77.3347 35° Northeast 437 503 31,000  Level Washington Center
02:41PM 35.7272 -77.2475 36° Northeast 432 497 31,000  Level Washington Center
02:42PM 35.8286 -77.1600 35° Northeast 432 497 31,000  Level Washington Center
02:43PM 35.9342 -77.0644 36° Northeast 432 497 31,000  Level Washington Center
02:44PM 36.0353 -76.9789 34° Northeast 432 497 31,000  Level Washington Center
02:45PM 36.1406 -76.9036 30° Northeast 437 503 31,000  Level Washington Center
02:46PM 36.2456 -76.8256 31° Northeast 437 503 31,000  Level Washington Center
02:47PM 36.3528 -76.7500 30° Northeast 432 497 31,000  Level Washington Center
02:48PM 36.4558 -76.6739 31° Northeast 432 497 31,000  Level Washington Center
02:49PM 36.5608 -76.5978 30° Northeast 432 497 31,000  Level Washington Center
02:50PM 36.6678 -76.5189 31° Northeast 432 497 31,000  Level Washington Center
02:51PM 36.7686 -76.4397 32° Northeast 432 497 31,000  Level Washington Center
02:52PM 36.8628 -76.3708 30° Northeast 437 503 31,000  Level Washington Center
02:53PM 36.9678 -76.2911 31° Northeast 437 503 31,000  Level Washington Center
02:54PM 37.0725 -76.2142 30° Northeast 437 503 31,000  Level Washington Center
02:55PM 37.1811 -76.1392 29° Northeast 437 503 31,000  Level Washington Center
02:56PM 37.2858 -76.0592 31° Northeast 437 503 31,000  Level Washington Center
02:57PM 37.3903 -75.9814 31° Northeast 437 503 31,000  Level Washington Center
02:58PM 37.4950 -75.9006 31° Northeast 437 503 31,000  Level Washington Center
02:59PM 37.6014 -75.8172 32° Northeast 443 510 31,000  Level Washington Center
03:00PM 37.7081 -75.7361 31° Northeast 443 510 31,000  Level Washington Center
03:01PM 37.8122 -75.6550 32° Northeast 443 510 31,000  Level Washington Center
03:02PM 37.9186 -75.5733 31° Northeast 443 510 31,000  Level Washington Center
03:03PM 38.0250 -75.4969 29° Northeast 443 510 31,000  Level Washington Center
03:04PM 38.1356 -75.4203 29° Northeast 443 510 31,000  Level Washington Center
03:05PM 38.2436 -75.3433 29° Northeast 443 510 31,000  Level Washington Center
03:06PM 38.3542 -75.2792 24° Northeast 433 498 31,000  Level Washington Center
03:07PM 38.4644 -75.2100 26° Northeast 433 498 31,000  Level Washington Center
03:08PM 38.5767 -75.1403 26° Northeast 433 498 31,000  Level Washington Center
03:09PM 38.6869 -75.0650 28° Northeast 433 498 31,000  Level Washington Center
03:10PM 38.7992 -74.9950 26° Northeast 438 504 31,000  Level Washington Center
03:11PM 38.9114 -74.9194 28° Northeast 438 504 31,000  Level Washington Center
03:12PM 39.0214 -74.8489 26° Northeast 443 510 31,000  Level Washington Center
03:13PM 39.1272 -74.7728 29° Northeast 443 510 31,000 -120 Level Washington Center
03:15PM 39.3617 -74.5275 39° Northeast 445 512 30,700 -2,160 Descending New York Center
03:16PM 39.4672 -74.4200 38° Northeast 455 524 24,000 -3,000 Descending New York Center
03:17PM 39.5664 -74.3119 40° Northeast 467 537 24,800  Climbing New York Center
03:18PM 39.6611 -74.2144 38° Northeast 456 525 24,000 -420 Descending New York Center
03:19PM 39.7536 -74.1136 40° Northeast 443 510 24,000  Level New York Center
03:20PM 39.8397 -74.0206 40° Northeast 438 504 24,000  Level New York Center
03:21PM 39.9339 -73.9219 39° Northeast 438 504 24,000 -1,320 Level New York Center
03:24PM 40.1406 -73.7022 39° Northeast 421 484 19,800 -2,100 Descending Boston Center
03:25PM 40.2311 -73.6089 38° Northeast 414 476 17,200 -1,440 Descending Boston Center
03:26PM 40.3050 -73.5231 42° Northeast 377 434 17,000 -120 Descending Boston Center
03:27PM 40.3869 -73.4508 34° Northeast 357 411 17,000  Level Boston Center
03:28PM 40.4831 -73.4169 15° North 336 387 17,000 -60 Level Boston Center
03:29PM 40.5792 -73.3828 15° North 342 394 16,900 -540 Descending Boston Center
03:30PM 40.7000 -73.3333 17° North 346 398 15,800 -840 Descending New York TRACON
03:31PM 40.7833 -73.3000 17° North 355 409 15,100 -1,080 Descending New York TRACON
03:32PM 40.8500 -73.2000 49° Northeast 361 415 13,700 -1,500 Descending New York TRACON
03:33PM 40.9000 -73.1000 56° Northeast 368 423 12,100 -1,680 Descending New York TRACON
03:34PM 40.9500 -73.0000 56° Northeast 328 377 10,400 -1,680 Descending New York TRACON
03:35PM 41.0333 -73.0000 360° North 278 320 8,700 -1,680 Descending New York TRACON
03:36PM 41.0667 -73.0833 298° West 250 288 7,000 -1,680 Descending New York TRACON
03:37PM 41.1000 -73.1667 298° West 247 284 5,400 -1,020 Descending New York TRACON
03:38PM 41.1167 -73.2500 285° West 247 284 5,000 -300 Descending New York TRACON
03:39PM 41.1333 -73.3333 285° West 245 282 4,800 -540 Descending New York TRACON
03:40PM 41.1667 -73.4333 294° West 244 281 4,000 -660 Descending New York TRACON
03:41PM 41.1500 -73.5000 252° West 210 242 3,500 -960 Descending New York TRACON
03:42PM 41.1167 -73.5500 229° Southwest 231 266 2,100 -780 Descending New York TRACON
03:43PM 41.0500 -73.5667 191° South 203 234 2,000 -60 Descending New York TRACON
03:44PM 41.0000 -73.5833 194° South 204 235 2,000  Level New York TRACON